sensor_id;sensor_type;location;lat;lon;timestamp;P1;durP1;ratioP1;P2;durP2;ratioP2
38937;SDS011;24727;51.974;20.868;2024-03-22T00:01:53;81.45;;;38.38;;
38937;SDS011;24727;51.974;20.868;2024-03-22T00:04:20;85.45;;;42.08;;
38937;SDS011;24727;51.974;20.868;2024-03-22T00:06:53;87.80;;;40.83;;
38937;SDS011;24727;51.974;20.868;2024-03-22T00:09:19;78.22;;;38.58;;
38937;SDS011;24727;51.974;20.868;2024-03-22T00:11:45;78.43;;;38.92;;
38937;SDS011;24727;51.974;20.868;2024-03-22T00:14:11;76.00;;;37.22;;
38937;SDS011;24727;51.974;20.868;2024-03-22T00:19:19;77.15;;;38.47;;
38937;SDS011;24727;51.974;20.868;2024-03-22T00:21:45;81.30;;;40.53;;
38937;SDS011;24727;51.974;20.868;2024-03-22T00:24:11;87.75;;;40.08;;
38937;SDS011;24727;51.974;20.868;2024-03-22T00:26:37;90.05;;;40.35;;
38937;SDS011;24727;51.974;20.868;2024-03-22T00:29:04;83.32;;;41.25;;
38937;SDS011;24727;51.974;20.868;2024-03-22T00:31:30;86.50;;;40.90;;
38937;SDS011;24727;51.974;20.868;2024-03-22T00:33:56;89.55;;;42.10;;
38937;SDS011;24727;51.974;20.868;2024-03-22T00:36:22;89.95;;;43.25;;
38937;SDS011;24727;51.974;20.868;2024-03-22T00:38:48;92.10;;;44.65;;
38937;SDS011;24727;51.974;20.868;2024-03-22T00:41:14;91.70;;;42.63;;
38937;SDS011;24727;51.974;20.868;2024-03-22T00:43:40;92.80;;;45.38;;
38937;SDS011;24727;51.974;20.868;2024-03-22T00:46:06;93.32;;;43.22;;
38937;SDS011;24727;51.974;20.868;2024-03-22T00:48:32;98.40;;;45.70;;
38937;SDS011;24727;51.974;20.868;2024-03-22T00:51:00;96.35;;;45.55;;
38937;SDS011;24727;51.974;20.868;2024-03-22T00:53:26;94.93;;;45.90;;
38937;SDS011;24727;51.974;20.868;2024-03-22T00:55:52;96.35;;;43.78;;
38937;SDS011;24727;51.974;20.868;2024-03-22T00:58:19;93.32;;;45.38;;
38937;SDS011;24727;51.974;20.868;2024-03-22T01:00:45;93.82;;;44.55;;
38937;SDS011;24727;51.974;20.868;2024-03-22T01:03:11;96.60;;;44.30;;
38937;SDS011;24727;51.974;20.868;2024-03-22T01:05:37;103.53;;;44.13;;
38937;SDS011;24727;51.974;20.868;2024-03-22T01:08:04;105.22;;;45.53;;
38937;SDS011;24727;51.974;20.868;2024-03-22T01:10:31;104.68;;;47.80;;
38937;SDS011;24727;51.974;20.868;2024-03-22T01:12:58;104.47;;;47.45;;
38937;SDS011;24727;51.974;20.868;2024-03-22T01:15:25;106.65;;;48.15;;
38937;SDS011;24727;51.974;20.868;2024-03-22T01:17:50;105.43;;;47.80;;
38937;SDS011;24727;51.974;20.868;2024-03-22T01:20:18;105.18;;;48.53;;
38937;SDS011;24727;51.974;20.868;2024-03-22T01:22:44;108.38;;;48.78;;
38937;SDS011;24727;51.974;20.868;2024-03-22T01:25:09;115.78;;;49.53;;
38937;SDS011;24727;51.974;20.868;2024-03-22T01:27:35;103.72;;;47.50;;
38937;SDS011;24727;51.974;20.868;2024-03-22T01:30:02;111.15;;;47.70;;
38937;SDS011;24727;51.974;20.868;2024-03-22T01:32:28;105.53;;;49.30;;
38937;SDS011;24727;51.974;20.868;2024-03-22T01:34:54;110.72;;;50.40;;
38937;SDS011;24727;51.974;20.868;2024-03-22T01:37:20;124.78;;;52.05;;
38937;SDS011;24727;51.974;20.868;2024-03-22T01:39:46;125.22;;;52.80;;
38937;SDS011;24727;51.974;20.868;2024-03-22T01:42:11;123.18;;;52.10;;
38937;SDS011;24727;51.974;20.868;2024-03-22T01:44:37;126.45;;;53.70;;
38937;SDS011;24727;51.974;20.868;2024-03-22T01:47:03;134.73;;;57.13;;
38937;SDS011;24727;51.974;20.868;2024-03-22T01:49:29;135.43;;;55.22;;
38937;SDS011;24727;51.974;20.868;2024-03-22T01:51:55;143.55;;;58.58;;
38937;SDS011;24727;51.974;20.868;2024-03-22T01:54:22;140.73;;;59.83;;
38937;SDS011;24727;51.974;20.868;2024-03-22T01:56:48;156.27;;;61.10;;
38937;SDS011;24727;51.974;20.868;2024-03-22T01:59:14;152.57;;;59.10;;
38937;SDS011;24727;51.974;20.868;2024-03-22T02:01:41;150.52;;;60.03;;
38937;SDS011;24727;51.974;20.868;2024-03-22T02:04:07;144.25;;;57.22;;
38937;SDS011;24727;51.974;20.868;2024-03-22T02:06:33;148.93;;;59.88;;
38937;SDS011;24727;51.974;20.868;2024-03-22T02:08:59;157.35;;;59.22;;
38937;SDS011;24727;51.974;20.868;2024-03-22T02:11:34;156.30;;;59.05;;
38937;SDS011;24727;51.974;20.868;2024-03-22T02:14:02;153.68;;;57.45;;
38937;SDS011;24727;51.974;20.868;2024-03-22T02:16:29;151.20;;;57.42;;
38937;SDS011;24727;51.974;20.868;2024-03-22T02:18:55;158.43;;;60.63;;
38937;SDS011;24727;51.974;20.868;2024-03-22T02:21:21;161.23;;;61.47;;
38937;SDS011;24727;51.974;20.868;2024-03-22T02:23:47;162.95;;;61.42;;
38937;SDS011;24727;51.974;20.868;2024-03-22T02:26:13;159.73;;;58.72;;
38937;SDS011;24727;51.974;20.868;2024-03-22T02:28:38;169.98;;;63.97;;
38937;SDS011;24727;51.974;20.868;2024-03-22T02:31:04;161.50;;;57.60;;
38937;SDS011;24727;51.974;20.868;2024-03-22T02:33:36;154.68;;;61.17;;
38937;SDS011;24727;51.974;20.868;2024-03-22T02:36:02;166.45;;;59.70;;
38937;SDS011;24727;51.974;20.868;2024-03-22T02:38:28;167.48;;;61.17;;
38937;SDS011;24727;51.974;20.868;2024-03-22T02:40:54;164.27;;;60.33;;
38937;SDS011;24727;51.974;20.868;2024-03-22T02:43:20;160.70;;;58.78;;
38937;SDS011;24727;51.974;20.868;2024-03-22T02:45:49;161.38;;;60.33;;
38937;SDS011;24727;51.974;20.868;2024-03-22T02:48:15;159.23;;;60.30;;
38937;SDS011;24727;51.974;20.868;2024-03-22T02:50:47;155.73;;;61.00;;
38937;SDS011;24727;51.974;20.868;2024-03-22T02:53:13;157.95;;;58.22;;
38937;SDS011;24727;51.974;20.868;2024-03-22T02:55:39;153.23;;;56.58;;
38937;SDS011;24727;51.974;20.868;2024-03-22T02:58:06;142.98;;;54.58;;
38937;SDS011;24727;51.974;20.868;2024-03-22T03:00:36;153.57;;;57.42;;
38937;SDS011;24727;51.974;20.868;2024-03-22T03:03:06;160.55;;;59.35;;
38937;SDS011;24727;51.974;20.868;2024-03-22T03:05:34;151.55;;;55.55;;
38937;SDS011;24727;51.974;20.868;2024-03-22T03:08:00;161.93;;;58.78;;
38937;SDS011;24727;51.974;20.868;2024-03-22T03:10:26;146.60;;;55.40;;
38937;SDS011;24727;51.974;20.868;2024-03-22T03:12:56;141.00;;;54.08;;
38937;SDS011;24727;51.974;20.868;2024-03-22T03:15:21;145.02;;;55.45;;
38937;SDS011;24727;51.974;20.868;2024-03-22T03:17:47;138.80;;;52.83;;
38937;SDS011;24727;51.974;20.868;2024-03-22T03:20:13;125.85;;;49.33;;
38937;SDS011;24727;51.974;20.868;2024-03-22T03:22:40;127.75;;;49.95;;
38937;SDS011;24727;51.974;20.868;2024-03-22T03:25:06;123.43;;;49.35;;
38937;SDS011;24727;51.974;20.868;2024-03-22T03:27:32;113.18;;;45.78;;
38937;SDS011;24727;51.974;20.868;2024-03-22T03:29:59;113.95;;;46.13;;
38937;SDS011;24727;51.974;20.868;2024-03-22T03:32:25;121.60;;;47.35;;
38937;SDS011;24727;51.974;20.868;2024-03-22T03:34:51;105.32;;;43.97;;
38937;SDS011;24727;51.974;20.868;2024-03-22T03:37:17;103.97;;;43.28;;
38937;SDS011;24727;51.974;20.868;2024-03-22T03:39:43;102.20;;;43.42;;
38937;SDS011;24727;51.974;20.868;2024-03-22T03:42:09;102.97;;;42.05;;
38937;SDS011;24727;51.974;20.868;2024-03-22T03:44:36;96.22;;;39.35;;
38937;SDS011;24727;51.974;20.868;2024-03-22T03:47:02;83.07;;;37.20;;
38937;SDS011;24727;51.974;20.868;2024-03-22T03:49:28;79.20;;;34.17;;
38937;SDS011;24727;51.974;20.868;2024-03-22T03:51:53;76.20;;;34.38;;
38937;SDS011;24727;51.974;20.868;2024-03-22T03:54:19;69.10;;;31.17;;
38937;SDS011;24727;51.974;20.868;2024-03-22T03:56:45;66.78;;;30.55;;
38937;SDS011;24727;51.974;20.868;2024-03-22T03:59:11;62.22;;;29.77;;
38937;SDS011;24727;51.974;20.868;2024-03-22T04:01:37;55.78;;;30.13;;
38937;SDS011;24727;51.974;20.868;2024-03-22T04:04:03;59.15;;;28.15;;
38937;SDS011;24727;51.974;20.868;2024-03-22T04:06:29;50.75;;;26.25;;
38937;SDS011;24727;51.974;20.868;2024-03-22T04:08:55;59.25;;;28.38;;
38937;SDS011;24727;51.974;20.868;2024-03-22T04:11:20;51.53;;;26.58;;
38937;SDS011;24727;51.974;20.868;2024-03-22T04:13:46;46.45;;;25.40;;
38937;SDS011;24727;51.974;20.868;2024-03-22T04:16:12;47.25;;;26.33;;
38937;SDS011;24727;51.974;20.868;2024-03-22T04:18:39;52.60;;;29.70;;
38937;SDS011;24727;51.974;20.868;2024-03-22T04:21:04;49.45;;;25.73;;
38937;SDS011;24727;51.974;20.868;2024-03-22T04:23:30;53.35;;;31.58;;
38937;SDS011;24727;51.974;20.868;2024-03-22T04:26:00;54.75;;;28.00;;
38937;SDS011;24727;51.974;20.868;2024-03-22T04:28:27;48.40;;;25.27;;
38937;SDS011;24727;51.974;20.868;2024-03-22T04:31:00;45.90;;;24.73;;
38937;SDS011;24727;51.974;20.868;2024-03-22T04:33:28;41.80;;;22.60;;
38937;SDS011;24727;51.974;20.868;2024-03-22T04:35:55;42.15;;;23.77;;
38937;SDS011;24727;51.974;20.868;2024-03-22T04:38:22;48.28;;;28.80;;
38937;SDS011;24727;51.974;20.868;2024-03-22T04:40:48;53.33;;;26.60;;
38937;SDS011;24727;51.974;20.868;2024-03-22T04:43:14;50.15;;;26.80;;
38937;SDS011;24727;51.974;20.868;2024-03-22T04:45:43;52.65;;;28.63;;
38937;SDS011;24727;51.974;20.868;2024-03-22T04:48:12;54.95;;;28.30;;
38937;SDS011;24727;51.974;20.868;2024-03-22T04:50:42;58.95;;;29.30;;
38937;SDS011;24727;51.974;20.868;2024-03-22T04:53:08;60.65;;;29.88;;
38937;SDS011;24727;51.974;20.868;2024-03-22T04:55:34;64.90;;;31.27;;
38937;SDS011;24727;51.974;20.868;2024-03-22T04:58:00;60.30;;;31.23;;
38937;SDS011;24727;51.974;20.868;2024-03-22T05:00:26;63.42;;;33.08;;
38937;SDS011;24727;51.974;20.868;2024-03-22T05:02:55;64.90;;;33.17;;
38937;SDS011;24727;51.974;20.868;2024-03-22T05:05:21;64.43;;;31.27;;
38937;SDS011;24727;51.974;20.868;2024-03-22T05:07:47;63.42;;;30.52;;
38937;SDS011;24727;51.974;20.868;2024-03-22T05:10:13;59.20;;;30.25;;
38937;SDS011;24727;51.974;20.868;2024-03-22T05:12:39;57.72;;;28.58;;
38937;SDS011;24727;51.974;20.868;2024-03-22T05:15:05;58.05;;;27.02;;
38937;SDS011;24727;51.974;20.868;2024-03-22T05:17:32;51.78;;;25.90;;
38937;SDS011;24727;51.974;20.868;2024-03-22T05:19:59;59.17;;;30.08;;
38937;SDS011;24727;51.974;20.868;2024-03-22T05:22:25;58.03;;;27.20;;
38937;SDS011;24727;51.974;20.868;2024-03-22T05:24:51;56.47;;;27.75;;
38937;SDS011;24727;51.974;20.868;2024-03-22T05:27:17;53.67;;;28.17;;
38937;SDS011;24727;51.974;20.868;2024-03-22T05:29:43;57.25;;;28.17;;
38937;SDS011;24727;51.974;20.868;2024-03-22T05:32:09;60.28;;;27.42;;
38937;SDS011;24727;51.974;20.868;2024-03-22T05:34:35;52.00;;;23.83;;
38937;SDS011;24727;51.974;20.868;2024-03-22T05:37:02;58.17;;;27.73;;
38937;SDS011;24727;51.974;20.868;2024-03-22T05:39:28;53.55;;;25.45;;
38937;SDS011;24727;51.974;20.868;2024-03-22T05:41:54;55.70;;;26.95;;
38937;SDS011;24727;51.974;20.868;2024-03-22T05:44:23;56.55;;;27.85;;
38937;SDS011;24727;51.974;20.868;2024-03-22T05:46:49;56.33;;;26.33;;
38937;SDS011;24727;51.974;20.868;2024-03-22T05:49:15;50.80;;;25.35;;
38937;SDS011;24727;51.974;20.868;2024-03-22T05:51:41;50.78;;;24.25;;
38937;SDS011;24727;51.974;20.868;2024-03-22T05:54:10;52.83;;;24.98;;
38937;SDS011;24727;51.974;20.868;2024-03-22T05:56:38;51.00;;;23.58;;
38937;SDS011;24727;51.974;20.868;2024-03-22T05:59:04;51.10;;;24.60;;
38937;SDS011;24727;51.974;20.868;2024-03-22T06:01:31;48.05;;;23.45;;
38937;SDS011;24727;51.974;20.868;2024-03-22T06:03:57;46.20;;;22.02;;
38937;SDS011;24727;51.974;20.868;2024-03-22T06:06:23;31.83;;;16.63;;
38937;SDS011;24727;51.974;20.868;2024-03-22T06:08:52;50.30;;;23.98;;
38937;SDS011;24727;51.974;20.868;2024-03-22T06:14:13;41.83;;;22.30;;
38937;SDS011;24727;51.974;20.868;2024-03-22T06:16:39;45.45;;;21.63;;
38937;SDS011;24727;51.974;20.868;2024-03-22T06:19:05;45.30;;;23.08;;
38937;SDS011;24727;51.974;20.868;2024-03-22T06:21:30;45.03;;;23.83;;
38937;SDS011;24727;51.974;20.868;2024-03-22T06:23:56;42.33;;;23.40;;
38937;SDS011;24727;51.974;20.868;2024-03-22T06:26:38;45.60;;;23.20;;
38937;SDS011;24727;51.974;20.868;2024-03-22T06:29:04;43.92;;;24.80;;
38937;SDS011;24727;51.974;20.868;2024-03-22T06:31:30;43.63;;;25.38;;
38937;SDS011;24727;51.974;20.868;2024-03-22T06:33:56;48.10;;;29.13;;
38937;SDS011;24727;51.974;20.868;2024-03-22T06:39:27;43.58;;;24.95;;
38937;SDS011;24727;51.974;20.868;2024-03-22T06:41:53;42.55;;;22.60;;
38937;SDS011;24727;51.974;20.868;2024-03-22T06:44:31;35.60;;;19.70;;
38937;SDS011;24727;51.974;20.868;2024-03-22T06:46:57;38.85;;;20.13;;
38937;SDS011;24727;51.974;20.868;2024-03-22T06:49:23;38.28;;;19.83;;
38937;SDS011;24727;51.974;20.868;2024-03-22T06:51:48;34.97;;;19.20;;
38937;SDS011;24727;51.974;20.868;2024-03-22T06:54:20;39.08;;;19.25;;
38937;SDS011;24727;51.974;20.868;2024-03-22T06:56:47;37.55;;;18.92;;
38937;SDS011;24727;51.974;20.868;2024-03-22T06:59:13;38.40;;;18.70;;
38937;SDS011;24727;51.974;20.868;2024-03-22T07:01:39;36.17;;;17.92;;
38937;SDS011;24727;51.974;20.868;2024-03-22T07:04:04;41.90;;;19.88;;
38937;SDS011;24727;51.974;20.868;2024-03-22T07:06:30;34.38;;;17.23;;
38937;SDS011;24727;51.974;20.868;2024-03-22T07:08:56;36.95;;;18.08;;
38937;SDS011;24727;51.974;20.868;2024-03-22T07:11:22;41.25;;;20.45;;
38937;SDS011;24727;51.974;20.868;2024-03-22T07:13:48;44.40;;;18.75;;
38937;SDS011;24727;51.974;20.868;2024-03-22T07:16:13;38.28;;;18.35;;
38937;SDS011;24727;51.974;20.868;2024-03-22T07:18:39;35.78;;;18.00;;
38937;SDS011;24727;51.974;20.868;2024-03-22T07:21:05;38.25;;;19.38;;
38937;SDS011;24727;51.974;20.868;2024-03-22T07:23:31;35.90;;;18.55;;
38937;SDS011;24727;51.974;20.868;2024-03-22T07:25:57;33.25;;;17.65;;
38937;SDS011;24727;51.974;20.868;2024-03-22T07:28:25;46.38;;;23.77;;
38937;SDS011;24727;51.974;20.868;2024-03-22T07:30:51;32.00;;;18.33;;
38937;SDS011;24727;51.974;20.868;2024-03-22T07:33:18;30.15;;;16.40;;
38937;SDS011;24727;51.974;20.868;2024-03-22T07:35:44;27.48;;;15.68;;
38937;SDS011;24727;51.974;20.868;2024-03-22T07:38:10;32.38;;;15.88;;
38937;SDS011;24727;51.974;20.868;2024-03-22T07:40:36;30.60;;;16.30;;
38937;SDS011;24727;51.974;20.868;2024-03-22T07:43:02;44.25;;;18.38;;
38937;SDS011;24727;51.974;20.868;2024-03-22T07:45:51;28.02;;;14.55;;
38937;SDS011;24727;51.974;20.868;2024-03-22T07:48:17;30.05;;;15.63;;
38937;SDS011;24727;51.974;20.868;2024-03-22T07:50:43;32.55;;;15.25;;
38937;SDS011;24727;51.974;20.868;2024-03-22T07:53:08;32.20;;;16.08;;
38937;SDS011;24727;51.974;20.868;2024-03-22T07:55:35;26.08;;;16.42;;
38937;SDS011;24727;51.974;20.868;2024-03-22T07:58:01;34.67;;;18.10;;
38937;SDS011;24727;51.974;20.868;2024-03-22T08:00:39;30.60;;;17.00;;
38937;SDS011;24727;51.974;20.868;2024-03-22T08:03:05;34.78;;;17.08;;
38937;SDS011;24727;51.974;20.868;2024-03-22T08:05:32;32.47;;;18.48;;
38937;SDS011;24727;51.974;20.868;2024-03-22T08:07:57;35.00;;;18.17;;
38937;SDS011;24727;51.974;20.868;2024-03-22T08:10:23;30.90;;;15.88;;
38937;SDS011;24727;51.974;20.868;2024-03-22T08:12:49;35.47;;;17.92;;
38937;SDS011;24727;51.974;20.868;2024-03-22T08:15:15;28.15;;;15.65;;
38937;SDS011;24727;51.974;20.868;2024-03-22T08:17:41;29.63;;;17.17;;
38937;SDS011;24727;51.974;20.868;2024-03-22T08:20:07;28.67;;;14.80;;
38937;SDS011;24727;51.974;20.868;2024-03-22T08:22:33;25.90;;;14.27;;
38937;SDS011;24727;51.974;20.868;2024-03-22T08:24:59;35.72;;;18.65;;
38937;SDS011;24727;51.974;20.868;2024-03-22T08:27:27;31.20;;;17.67;;
38937;SDS011;24727;51.974;20.868;2024-03-22T08:29:53;33.33;;;17.50;;
38937;SDS011;24727;51.974;20.868;2024-03-22T08:32:19;32.10;;;18.15;;
38937;SDS011;24727;51.974;20.868;2024-03-22T08:34:45;35.45;;;18.02;;
38937;SDS011;24727;51.974;20.868;2024-03-22T08:37:11;32.95;;;17.80;;
38937;SDS011;24727;51.974;20.868;2024-03-22T08:39:38;27.20;;;15.18;;
38937;SDS011;24727;51.974;20.868;2024-03-22T08:42:04;25.20;;;14.57;;
38937;SDS011;24727;51.974;20.868;2024-03-22T08:44:41;25.77;;;15.02;;
38937;SDS011;24727;51.974;20.868;2024-03-22T08:47:15;29.90;;;16.85;;
38937;SDS011;24727;51.974;20.868;2024-03-22T08:49:41;27.98;;;17.08;;
38937;SDS011;24727;51.974;20.868;2024-03-22T08:52:09;31.10;;;17.67;;
38937;SDS011;24727;51.974;20.868;2024-03-22T08:54:35;32.42;;;16.15;;
38937;SDS011;24727;51.974;20.868;2024-03-22T08:57:01;29.05;;;17.50;;
38937;SDS011;24727;51.974;20.868;2024-03-22T08:59:27;32.70;;;18.33;;
38937;SDS011;24727;51.974;20.868;2024-03-22T09:01:53;33.13;;;18.17;;
38937;SDS011;24727;51.974;20.868;2024-03-22T09:04:19;35.58;;;17.58;;
38937;SDS011;24727;51.974;20.868;2024-03-22T09:06:45;36.60;;;17.40;;
38937;SDS011;24727;51.974;20.868;2024-03-22T09:09:11;35.45;;;17.58;;
38937;SDS011;24727;51.974;20.868;2024-03-22T09:11:38;38.10;;;18.92;;
38937;SDS011;24727;51.974;20.868;2024-03-22T09:14:04;44.35;;;19.55;;
38937;SDS011;24727;51.974;20.868;2024-03-22T09:16:29;36.33;;;18.15;;
38937;SDS011;24727;51.974;20.868;2024-03-22T09:18:56;36.00;;;20.08;;
38937;SDS011;24727;51.974;20.868;2024-03-22T09:21:21;35.95;;;19.08;;
38937;SDS011;24727;51.974;20.868;2024-03-22T09:23:49;35.15;;;18.80;;
38937;SDS011;24727;51.974;20.868;2024-03-22T09:26:15;36.00;;;19.05;;
38937;SDS011;24727;51.974;20.868;2024-03-22T09:28:41;40.05;;;20.25;;
38937;SDS011;24727;51.974;20.868;2024-03-22T09:31:07;36.85;;;20.00;;
38937;SDS011;24727;51.974;20.868;2024-03-22T09:33:39;37.90;;;19.10;;
38937;SDS011;24727;51.974;20.868;2024-03-22T09:36:05;34.72;;;18.02;;
38937;SDS011;24727;51.974;20.868;2024-03-22T09:38:31;34.00;;;18.23;;
38937;SDS011;24727;51.974;20.868;2024-03-22T09:40:57;35.70;;;19.55;;
38937;SDS011;24727;51.974;20.868;2024-03-22T09:43:23;38.38;;;19.20;;
38937;SDS011;24727;51.974;20.868;2024-03-22T09:45:52;36.63;;;19.23;;
38937;SDS011;24727;51.974;20.868;2024-03-22T09:48:22;32.70;;;17.38;;
38937;SDS011;24727;51.974;20.868;2024-03-22T09:50:50;37.95;;;20.20;;
38937;SDS011;24727;51.974;20.868;2024-03-22T09:53:17;36.03;;;18.90;;
38937;SDS011;24727;51.974;20.868;2024-03-22T09:55:50;33.13;;;18.55;;
38937;SDS011;24727;51.974;20.868;2024-03-22T09:58:17;29.88;;;16.52;;
38937;SDS011;24727;51.974;20.868;2024-03-22T10:00:43;32.80;;;17.08;;
38937;SDS011;24727;51.974;20.868;2024-03-22T10:03:09;31.70;;;17.33;;
38937;SDS011;24727;51.974;20.868;2024-03-22T10:05:36;30.80;;;17.20;;
38937;SDS011;24727;51.974;20.868;2024-03-22T10:08:05;31.65;;;17.30;;
38937;SDS011;24727;51.974;20.868;2024-03-22T10:10:34;31.55;;;18.23;;
38937;SDS011;24727;51.974;20.868;2024-03-22T10:13:00;31.65;;;16.20;;
38937;SDS011;24727;51.974;20.868;2024-03-22T10:15:27;28.35;;;16.10;;
38937;SDS011;24727;51.974;20.868;2024-03-22T10:17:53;31.60;;;17.58;;
38937;SDS011;24727;51.974;20.868;2024-03-22T10:20:21;25.67;;;14.05;;
38937;SDS011;24727;51.974;20.868;2024-03-22T10:22:57;24.30;;;15.63;;
38937;SDS011;24727;51.974;20.868;2024-03-22T10:25:24;22.45;;;13.50;;
38937;SDS011;24727;51.974;20.868;2024-03-22T10:27:53;21.60;;;13.23;;
38937;SDS011;24727;51.974;20.868;2024-03-22T10:30:21;22.33;;;12.63;;
38937;SDS011;24727;51.974;20.868;2024-03-22T10:32:51;21.58;;;12.35;;
38937;SDS011;24727;51.974;20.868;2024-03-22T10:35:17;17.83;;;11.32;;
38937;SDS011;24727;51.974;20.868;2024-03-22T10:37:43;13.95;;;8.52;;
38937;SDS011;24727;51.974;20.868;2024-03-22T10:40:10;12.30;;;8.52;;
38937;SDS011;24727;51.974;20.868;2024-03-22T10:42:37;11.75;;;7.75;;
38937;SDS011;24727;51.974;20.868;2024-03-22T10:45:05;13.52;;;8.75;;
38937;SDS011;24727;51.974;20.868;2024-03-22T10:47:32;11.40;;;8.45;;
38937;SDS011;24727;51.974;20.868;2024-03-22T10:50:09;11.85;;;7.53;;
38937;SDS011;24727;51.974;20.868;2024-03-22T10:52:41;15.43;;;7.93;;
38937;SDS011;24727;51.974;20.868;2024-03-22T10:55:31;11.23;;;7.07;;
38937;SDS011;24727;51.974;20.868;2024-03-22T10:58:00;10.55;;;7.13;;
38937;SDS011;24727;51.974;20.868;2024-03-22T11:00:29;12.57;;;7.53;;
38937;SDS011;24727;51.974;20.868;2024-03-22T11:03:03;12.13;;;7.65;;
38937;SDS011;24727;51.974;20.868;2024-03-22T11:05:30;12.18;;;7.95;;
38937;SDS011;24727;51.974;20.868;2024-03-22T11:08:05;9.95;;;6.88;;
38937;SDS011;24727;51.974;20.868;2024-03-22T11:10:34;11.73;;;7.70;;
38937;SDS011;24727;51.974;20.868;2024-03-22T11:13:01;11.40;;;6.93;;
38937;SDS011;24727;51.974;20.868;2024-03-22T11:15:31;12.50;;;7.75;;
38937;SDS011;24727;51.974;20.868;2024-03-22T11:17:57;10.70;;;7.90;;
38937;SDS011;24727;51.974;20.868;2024-03-22T11:20:24;12.30;;;8.00;;
38937;SDS011;24727;51.974;20.868;2024-03-22T11:22:53;11.25;;;7.82;;
38937;SDS011;24727;51.974;20.868;2024-03-22T11:25:19;14.60;;;7.38;;
38937;SDS011;24727;51.974;20.868;2024-03-22T11:27:46;11.63;;;8.05;;
38937;SDS011;24727;51.974;20.868;2024-03-22T11:30:12;15.73;;;8.00;;
38937;SDS011;24727;51.974;20.868;2024-03-22T11:32:41;14.15;;;7.38;;
38937;SDS011;24727;51.974;20.868;2024-03-22T11:35:10;11.88;;;7.25;;
38937;SDS011;24727;51.974;20.868;2024-03-22T11:37:40;12.75;;;8.02;;
38937;SDS011;24727;51.974;20.868;2024-03-22T11:40:09;12.85;;;7.53;;
38937;SDS011;24727;51.974;20.868;2024-03-22T11:42:37;11.10;;;7.40;;
38937;SDS011;24727;51.974;20.868;2024-03-22T11:45:05;13.13;;;8.27;;
38937;SDS011;24727;51.974;20.868;2024-03-22T11:47:33;15.57;;;10.05;;
38937;SDS011;24727;51.974;20.868;2024-03-22T11:49:59;12.88;;;9.00;;
38937;SDS011;24727;51.974;20.868;2024-03-22T11:52:26;15.10;;;8.57;;
38937;SDS011;24727;51.974;20.868;2024-03-22T11:54:53;13.55;;;8.65;;
38937;SDS011;24727;51.974;20.868;2024-03-22T11:57:22;10.65;;;7.55;;
38937;SDS011;24727;51.974;20.868;2024-03-22T11:59:48;11.15;;;7.28;;
38937;SDS011;24727;51.974;20.868;2024-03-22T12:02:18;12.60;;;7.50;;
38937;SDS011;24727;51.974;20.868;2024-03-22T12:04:53;12.45;;;8.15;;
38937;SDS011;24727;51.974;20.868;2024-03-22T12:07:19;12.10;;;8.23;;
38937;SDS011;24727;51.974;20.868;2024-03-22T12:09:45;11.15;;;7.40;;
38937;SDS011;24727;51.974;20.868;2024-03-22T12:12:11;10.27;;;7.50;;
38937;SDS011;24727;51.974;20.868;2024-03-22T12:14:41;15.38;;;8.13;;
38937;SDS011;24727;51.974;20.868;2024-03-22T12:17:07;10.85;;;8.00;;
38937;SDS011;24727;51.974;20.868;2024-03-22T12:19:33;13.18;;;8.65;;
38937;SDS011;24727;51.974;20.868;2024-03-22T12:22:00;14.07;;;8.73;;
38937;SDS011;24727;51.974;20.868;2024-03-22T12:24:26;9.75;;;6.88;;
38937;SDS011;24727;51.974;20.868;2024-03-22T12:26:52;12.68;;;8.07;;
38937;SDS011;24727;51.974;20.868;2024-03-22T12:29:19;14.55;;;7.95;;
38937;SDS011;24727;51.974;20.868;2024-03-22T12:31:45;12.73;;;8.20;;
38937;SDS011;24727;51.974;20.868;2024-03-22T12:34:12;12.27;;;8.07;;
38937;SDS011;24727;51.974;20.868;2024-03-22T12:36:38;14.95;;;9.13;;
38937;SDS011;24727;51.974;20.868;2024-03-22T12:39:04;14.73;;;8.93;;
38937;SDS011;24727;51.974;20.868;2024-03-22T12:41:30;12.55;;;8.35;;
38937;SDS011;24727;51.974;20.868;2024-03-22T12:43:57;13.00;;;8.75;;
38937;SDS011;24727;51.974;20.868;2024-03-22T12:46:23;12.90;;;9.57;;
38937;SDS011;24727;51.974;20.868;2024-03-22T12:48:49;12.75;;;8.30;;
38937;SDS011;24727;51.974;20.868;2024-03-22T12:51:15;11.93;;;8.82;;
38937;SDS011;24727;51.974;20.868;2024-03-22T12:53:51;13.38;;;8.18;;
38937;SDS011;24727;51.974;20.868;2024-03-22T12:56:17;13.95;;;8.68;;
38937;SDS011;24727;51.974;20.868;2024-03-22T12:58:43;12.50;;;8.35;;
38937;SDS011;24727;51.974;20.868;2024-03-22T13:01:09;13.20;;;8.18;;
38937;SDS011;24727;51.974;20.868;2024-03-22T13:03:37;11.80;;;8.75;;
38937;SDS011;24727;51.974;20.868;2024-03-22T13:06:06;11.68;;;8.52;;
38937;SDS011;24727;51.974;20.868;2024-03-22T13:08:32;12.00;;;9.00;;
38937;SDS011;24727;51.974;20.868;2024-03-22T13:10:58;13.07;;;8.95;;
38937;SDS011;24727;51.974;20.868;2024-03-22T13:13:24;14.88;;;10.32;;
38937;SDS011;24727;51.974;20.868;2024-03-22T13:15:50;15.90;;;10.25;;
38937;SDS011;24727;51.974;20.868;2024-03-22T13:18:16;16.27;;;10.68;;
38937;SDS011;24727;51.974;20.868;2024-03-22T13:20:42;15.00;;;9.68;;
38937;SDS011;24727;51.974;20.868;2024-03-22T13:23:08;13.00;;;9.35;;
38937;SDS011;24727;51.974;20.868;2024-03-22T13:25:37;16.13;;;10.52;;
38937;SDS011;24727;51.974;20.868;2024-03-22T13:28:03;16.42;;;10.20;;
38937;SDS011;24727;51.974;20.868;2024-03-22T13:30:32;17.30;;;11.77;;
38937;SDS011;24727;51.974;20.868;2024-03-22T13:33:01;17.33;;;12.07;;
38937;SDS011;24727;51.974;20.868;2024-03-22T13:35:27;16.58;;;10.43;;
38937;SDS011;24727;51.974;20.868;2024-03-22T13:38:06;16.77;;;11.93;;
38937;SDS011;24727;51.974;20.868;2024-03-22T13:40:38;14.60;;;10.20;;
38937;SDS011;24727;51.974;20.868;2024-03-22T13:43:05;16.70;;;11.50;;
38937;SDS011;24727;51.974;20.868;2024-03-22T13:45:31;17.30;;;10.73;;
38937;SDS011;24727;51.974;20.868;2024-03-22T13:47:58;15.32;;;10.95;;
38937;SDS011;24727;51.974;20.868;2024-03-22T13:50:24;18.10;;;11.48;;
38937;SDS011;24727;51.974;20.868;2024-03-22T13:52:50;18.13;;;11.88;;
38937;SDS011;24727;51.974;20.868;2024-03-22T13:55:16;17.13;;;11.82;;
38937;SDS011;24727;51.974;20.868;2024-03-22T13:57:50;17.17;;;11.55;;
38937;SDS011;24727;51.974;20.868;2024-03-22T14:00:16;18.50;;;11.65;;
38937;SDS011;24727;51.974;20.868;2024-03-22T14:02:45;16.70;;;10.75;;
38937;SDS011;24727;51.974;20.868;2024-03-22T14:05:17;16.53;;;10.97;;
38937;SDS011;24727;51.974;20.868;2024-03-22T14:07:43;15.52;;;10.93;;
38937;SDS011;24727;51.974;20.868;2024-03-22T14:10:09;17.75;;;11.52;;
38937;SDS011;24727;51.974;20.868;2024-03-22T14:12:48;15.00;;;10.73;;
38937;SDS011;24727;51.974;20.868;2024-03-22T14:15:23;16.80;;;11.30;;
38937;SDS011;24727;51.974;20.868;2024-03-22T14:17:51;16.90;;;12.70;;